sensor_id;sensor_type;location;lat;lon;timestamp;temperature;humidity
24458;DHT22;12629;50.860;5.714;2023-07-28T12:02:45;22.00;99.90
24458;DHT22;12629;50.860;5.714;2023-07-28T12:05:13;21.80;99.90
24458;DHT22;12629;50.860;5.714;2023-07-28T12:07:41;22.50;99.90
24458;DHT22;12629;50.860;5.714;2023-07-28T12:10:08;22.20;99.90
24458;DHT22;12629;50.860;5.714;2023-07-28T12:12:41;22.10;99.90
24458;DHT22;12629;50.860;5.714;2023-07-28T12:15:24;22.00;99.90
24458;DHT22;12629;50.860;5.714;2023-07-28T12:18:09;22.80;99.90
24458;DHT22;12629;50.860;5.714;2023-07-28T12:20:39;22.90;99.90
24458;DHT22;12629;50.860;5.714;2023-07-28T12:23:07;22.20;99.90
24458;DHT22;12629;50.860;5.714;2023-07-28T12:25:36;22.50;99.90
24458;DHT22;12629;50.860;5.714;2023-07-28T12:28:04;22.60;99.90
24458;DHT22;12629;50.860;5.714;2023-07-28T12:30:32;22.80;99.90
24458;DHT22;12629;50.860;5.714;2023-07-28T12:32:59;22.50;99.90
24458;DHT22;12629;50.860;5.714;2023-07-28T12:35:28;22.20;99.90
24458;DHT22;12629;50.860;5.714;2023-07-28T12:37:58;22.60;99.90
24458;DHT22;12629;50.860;5.714;2023-07-28T12:40:27;22.50;99.90
24458;DHT22;12629;50.860;5.714;2023-07-28T12:42:55;23.00;99.90
24458;DHT22;12629;50.860;5.714;2023-07-28T12:45:22;22.70;99.90
24458;DHT22;12629;50.860;5.714;2023-07-28T12:47:51;22.50;99.90
24458;DHT22;12629;50.860;5.714;2023-07-28T12:50:20;22.70;99.90
24458;DHT22;12629;50.860;5.714;2023-07-28T12:52:49;22.60;99.90
24458;DHT22;12629;50.860;5.714;2023-07-28T12:55:17;22.60;99.90
24458;DHT22;12629;50.860;5.714;2023-07-28T12:57:45;22.50;99.90
24458;DHT22;12629;50.860;5.714;2023-07-28T13:00:14;22.60;99.90
24458;DHT22;12629;50.860;5.714;2023-07-28T13:02:42;22.40;99.90
24458;DHT22;12629;50.860;5.714;2023-07-28T13:05:10;22.10;99.90
24458;DHT22;12629;50.860;5.714;2023-07-28T13:07:39;22.00;99.90
24458;DHT22;12629;50.860;5.714;2023-07-28T13:10:09;22.30;99.90
24458;DHT22;12629;50.860;5.714;2023-07-28T13:12:37;22.20;99.90
24458;DHT22;12629;50.860;5.714;2023-07-28T13:15:06;21.80;99.90
24458;DHT22;12629;50.860;5.714;2023-07-28T13:17:33;21.60;99.90
24458;DHT22;12629;50.860;5.714;2023-07-28T13:20:01;21.10;99.90
24458;DHT22;12629;50.860;5.714;2023-07-28T13:22:28;19.60;99.90
24458;DHT22;12629;50.860;5.714;2023-07-28T13:24:56;19.80;99.90
24458;DHT22;12629;50.860;5.714;2023-07-28T13:27:24;19.80;99.90
24458;DHT22;12629;50.860;5.714;2023-07-28T13:29:52;19.70;99.90
24458;DHT22;12629;50.860;5.714;2023-07-28T13:32:24;19.60;99.90
24458;DHT22;12629;50.860;5.714;2023-07-28T13:34:52;19.50;99.90
24458;DHT22;12629;50.860;5.714;2023-07-28T13:37:19;19.50;99.90
24458;DHT22;12629;50.860;5.714;2023-07-28T13:39:47;19.40;99.90
24458;DHT22;12629;50.860;5.714;2023-07-28T13:42:14;19.40;99.90
24458;DHT22;12629;50.860;5.714;2023-07-28T13:44:43;19.30;99.90
24458;DHT22;12629;50.860;5.714;2023-07-28T13:47:10;19.40;99.90
24458;DHT22;12629;50.860;5.714;2023-07-28T13:49:38;19.60;99.90
24458;DHT22;12629;50.860;5.714;2023-07-28T13:52:06;19.90;99.90
24458;DHT22;12629;50.860;5.714;2023-07-28T13:54:33;20.10;99.90
24458;DHT22;12629;50.860;5.714;2023-07-28T13:57:01;20.50;99.90
24458;DHT22;12629;50.860;5.714;2023-07-28T13:59:28;20.90;99.90
24458;DHT22;12629;50.860;5.714;2023-07-28T14:01:57;20.60;99.90
24458;DHT22;12629;50.860;5.714;2023-07-28T14:04:25;20.50;99.90
24458;DHT22;12629;50.860;5.714;2023-07-28T14:06:52;21.00;99.90
24458;DHT22;12629;50.860;5.714;2023-07-28T14:09:19;20.90;99.90
24458;DHT22;12629;50.860;5.714;2023-07-28T14:11:47;20.50;99.90
24458;DHT22;12629;50.860;5.714;2023-07-28T14:14:14;21.00;99.90
24458;DHT22;12629;50.860;5.714;2023-07-28T14:16:42;20.80;99.90
24458;DHT22;12629;50.860;5.714;2023-07-28T14:19:11;21.60;99.90
24458;DHT22;12629;50.860;5.714;2023-07-28T14:21:38;21.20;99.90
24458;DHT22;12629;50.860;5.714;2023-07-28T14:24:05;21.40;99.90
24458;DHT22;12629;50.860;5.714;2023-07-28T14:26:33;22.10;99.90
24458;DHT22;12629;50.860;5.714;2023-07-28T14:29:00;22.10;99.90
24458;DHT22;12629;50.860;5.714;2023-07-28T14:31:28;22.00;99.90
24458;DHT22;12629;50.860;5.714;2023-07-28T14:33:55;22.90;99.90
24458;DHT22;12629;50.860;5.714;2023-07-28T14:36:24;22.60;99.90
24458;DHT22;12629;50.860;5.714;2023-07-28T14:38:52;22.50;99.90
24458;DHT22;12629;50.860;5.714;2023-07-28T14:41:19;22.70;99.90
24458;DHT22;12629;50.860;5.714;2023-07-28T14:43:47;22.60;99.90
24458;DHT22;12629;50.860;5.714;2023-07-28T14:46:14;23.40;99.90
24458;DHT22;12629;50.860;5.714;2023-07-28T14:48:41;23.70;99.90
24458;DHT22;12629;50.860;5.714;2023-07-28T14:51:09;23.70;99.90
24458;DHT22;12629;50.860;5.714;2023-07-28T14:53:38;23.60;99.90
24458;DHT22;12629;50.860;5.714;2023-07-28T14:56:06;23.20;99.90
24458;DHT22;12629;50.860;5.714;2023-07-28T14:58:33;23.30;99.90
24458;DHT22;12629;50.860;5.714;2023-07-28T15:01:01;23.40;99.90
24458;DHT22;12629;50.860;5.714;2023-07-28T15:03:30;23.50;99.90
24458;DHT22;12629;50.860;5.714;2023-07-28T15:05:58;23.50;99.90
24458;DHT22;12629;50.860;5.714;2023-07-28T15:08:26;23.40;99.90
24458;DHT22;12629;50.860;5.714;2023-07-28T15:10:55;23.10;99.90
24458;DHT22;12629;50.860;5.714;2023-07-28T15:13:22;22.90;99.90
24458;DHT22;12629;50.860;5.714;2023-07-28T15:15:50;23.40;99.90
24458;DHT22;12629;50.860;5.714;2023-07-28T15:18:17;23.40;99.90
24458;DHT22;12629;50.860;5.714;2023-07-28T15:20:44;22.80;99.90
24458;DHT22;12629;50.860;5.714;2023-07-28T15:23:12;22.80;99.90
24458;DHT22;12629;50.860;5.714;2023-07-28T15:25:39;23.20;99.90
24458;DHT22;12629;50.860;5.714;2023-07-28T15:28:10;23.70;99.90
24458;DHT22;12629;50.860;5.714;2023-07-28T15:30:38;23.20;99.90
24458;DHT22;12629;50.860;5.714;2023-07-28T15:33:05;23.30;99.90
24458;DHT22;12629;50.860;5.714;2023-07-28T15:35:33;23.60;99.90
24458;DHT22;12629;50.860;5.714;2023-07-28T15:38:01;23.60;99.90
24458;DHT22;12629;50.860;5.714;2023-07-28T15:40:29;23.50;99.90
24458;DHT22;12629;50.860;5.714;2023-07-28T15:42:56;23.30;99.90
24458;DHT22;12629;50.860;5.714;2023-07-28T15:45:25;23.20;99.90
24458;DHT22;12629;50.860;5.714;2023-07-28T15:47:52;23.40;99.90
24458;DHT22;12629;50.860;5.714;2023-07-28T15:50:20;24.10;99.90
24458;DHT22;12629;50.860;5.714;2023-07-28T15:52:47;24.40;99.90
24458;DHT22;12629;50.860;5.714;2023-07-28T15:55:16;25.90;99.90
24458;DHT22;12629;50.860;5.714;2023-07-28T15:57:44;24.80;99.90
24458;DHT22;12629;50.860;5.714;2023-07-28T16:00:12;26.00;99.90
24458;DHT22;12629;50.860;5.714;2023-07-28T16:02:42;26.20;99.90
24458;DHT22;12629;50.860;5.714;2023-07-28T16:05:12;24.80;99.90
24458;DHT22;12629;50.860;5.714;2023-07-28T16:07:40;25.20;99.90
24458;DHT22;12629;50.860;5.714;2023-07-28T16:10:08;25.40;99.90
24458;DHT22;12629;50.860;5.714;2023-07-28T16:12:36;25.50;99.90
24458;DHT22;12629;50.860;5.714;2023-07-28T16:15:04;26.00;99.90
24458;DHT22;12629;50.860;5.714;2023-07-28T16:17:31;26.00;99.90
24458;DHT22;12629;50.860;5.714;2023-07-28T16:20:00;25.40;99.90
24458;DHT22;12629;50.860;5.714;2023-07-28T16:22:28;25.80;99.90
24458;DHT22;12629;50.860;5.714;2023-07-28T16:24:55;24.70;99.90
24458;DHT22;12629;50.860;5.714;2023-07-28T16:27:23;25.70;99.90
24458;DHT22;12629;50.860;5.714;2023-07-28T16:29:50;25.10;99.90
24458;DHT22;12629;50.860;5.714;2023-07-28T16:32:18;26.10;99.90
24458;DHT22;12629;50.860;5.714;2023-07-28T16:34:45;25.20;99.90
24458;DHT22;12629;50.860;5.714;2023-07-28T16:37:14;26.10;99.90
24458;DHT22;12629;50.860;5.714;2023-07-28T16:39:41;25.90;99.90
24458;DHT22;12629;50.860;5.714;2023-07-28T16:42:09;27.10;99.90
24458;DHT22;12629;50.860;5.714;2023-07-28T16:44:36;24.70;99.90
24458;DHT22;12629;50.860;5.714;2023-07-28T16:47:05;26.00;99.90
24458;DHT22;12629;50.860;5.714;2023-07-28T16:49:33;25.50;99.90
24458;DHT22;12629;50.860;5.714;2023-07-28T16:52:00;25.50;99.90
24458;DHT22;12629;50.860;5.714;2023-07-28T16:54:29;25.30;99.90
24458;DHT22;12629;50.860;5.714;2023-07-28T16:56:57;25.20;99.90
24458;DHT22;12629;50.860;5.714;2023-07-28T16:59:24;25.70;99.90
24458;DHT22;12629;50.860;5.714;2023-07-28T17:01:52;25.20;99.90
24458;DHT22;12629;50.860;5.714;2023-07-28T17:04:19;25.20;99.90
24458;DHT22;12629;50.860;5.714;2023-07-28T17:06:46;25.30;99.90
24458;DHT22;12629;50.860;5.714;2023-07-28T17:09:14;25.90;99.90
24458;DHT22;12629;50.860;5.714;2023-07-28T17:11:42;25.50;99.90
24458;DHT22;12629;50.860;5.714;2023-07-28T17:14:10;25.20;99.90
24458;DHT22;12629;50.860;5.714;2023-07-28T17:16:37;25.00;99.90
24458;DHT22;12629;50.860;5.714;2023-07-28T17:19:04;24.70;99.90
24458;DHT22;12629;50.860;5.714;2023-07-28T17:21:32;24.50;99.90
24458;DHT22;12629;50.860;5.714;2023-07-28T17:23:59;25.00;99.90
24458;DHT22;12629;50.860;5.714;2023-07-28T17:26:26;25.20;99.90
24458;DHT22;12629;50.860;5.714;2023-07-28T17:28:55;24.70;99.90
24458;DHT22;12629;50.860;5.714;2023-07-28T17:31:22;24.00;99.90
24458;DHT22;12629;50.860;5.714;2023-07-28T17:33:50;23.60;99.90
24458;DHT22;12629;50.860;5.714;2023-07-28T17:36:17;23.50;99.90
24458;DHT22;12629;50.860;5.714;2023-07-28T17:38:45;23.70;99.90
24458;DHT22;12629;50.860;5.714;2023-07-28T17:41:12;23.60;99.90
24458;DHT22;12629;50.860;5.714;2023-07-28T17:43:39;24.30;99.90
24458;DHT22;12629;50.860;5.714;2023-07-28T17:46:08;24.50;99.90
24458;DHT22;12629;50.860;5.714;2023-07-28T17:48:35;23.70;99.90
24458;DHT22;12629;50.860;5.714;2023-07-28T17:51:03;23.60;99.90
24458;DHT22;12629;50.860;5.714;2023-07-28T17:53:30;23.40;99.90
24458;DHT22;12629;50.860;5.714;2023-07-28T17:55:58;23.30;99.90
24458;DHT22;12629;50.860;5.714;2023-07-28T17:58:25;23.20;99.90
24458;DHT22;12629;50.860;5.714;2023-07-28T18:00:53;23.20;99.90
24458;DHT22;12629;50.860;5.714;2023-07-28T18:03:22;23.00;99.90
24458;DHT22;12629;50.860;5.714;2023-07-28T18:05:51;22.90;99.90
24458;DHT22;12629;50.860;5.714;2023-07-28T18:08:18;22.90;99.90
24458;DHT22;12629;50.860;5.714;2023-07-28T18:10:46;22.90;99.90
24458;DHT22;12629;50.860;5.714;2023-07-28T18:13:13;22.80;99.90
24458;DHT22;12629;50.860;5.714;2023-07-28T18:15:41;22.80;99.90
24458;DHT22;12629;50.860;5.714;2023-07-28T18:18:09;22.70;99.90
24458;DHT22;12629;50.860;5.714;2023-07-28T18:20:37;22.70;99.90
24458;DHT22;12629;50.860;5.714;2023-07-28T18:23:05;19.50;99.90
24458;DHT22;12629;50.860;5.714;2023-07-28T18:25:32;19.70;99.90
24458;DHT22;12629;50.860;5.714;2023-07-28T18:28:00;20.60;99.90
24458;DHT22;12629;50.860;5.714;2023-07-28T18:30:28;21.30;99.90
24458;DHT22;12629;50.860;5.714;2023-07-28T18:32:55;20.70;99.90
24458;DHT22;12629;50.860;5.714;2023-07-28T18:35:23;21.00;99.90
24458;DHT22;12629;50.860;5.714;2023-07-28T18:37:51;21.20;99.90
24458;DHT22;12629;50.860;5.714;2023-07-28T18:40:19;21.30;99.90
24458;DHT22;12629;50.860;5.714;2023-07-28T18:42:46;21.30;99.90
24458;DHT22;12629;50.860;5.714;2023-07-28T18:45:14;21.40;99.90
24458;DHT22;12629;50.860;5.714;2023-07-28T18:47:41;21.40;99.90
24458;DHT22;12629;50.860;5.714;2023-07-28T18:50:09;21.40;99.90
24458;DHT22;12629;50.860;5.714;2023-07-28T18:52:37;21.40;99.90
24458;DHT22;12629;50.860;5.714;2023-07-28T18:55:07;21.40;99.90
24458;DHT22;12629;50.860;5.714;2023-07-28T18:57:35;21.40;99.90
24458;DHT22;12629;50.860;5.714;2023-07-28T19:00:03;21.30;99.90
24458;DHT22;12629;50.860;5.714;2023-07-28T19:02:33;21.30;99.90
24458;DHT22;12629;50.860;5.714;2023-07-28T19:05:00;21.40;99.90
24458;DHT22;12629;50.860;5.714;2023-07-28T19:07:27;21.40;99.90
24458;DHT22;12629;50.860;5.714;2023-07-28T19:09:55;21.40;99.90
24458;DHT22;12629;50.860;5.714;2023-07-28T19:12:24;21.40;99.90
24458;DHT22;12629;50.860;5.714;2023-07-28T19:14:51;21.40;99.90
24458;DHT22;12629;50.860;5.714;2023-07-28T19:17:18;21.30;99.90
24458;DHT22;12629;50.860;5.714;2023-07-28T19:19:46;21.30;99.90
24458;DHT22;12629;50.860;5.714;2023-07-28T19:22:14;21.20;99.90
24458;DHT22;12629;50.860;5.714;2023-07-28T19:24:41;21.20;99.90
24458;DHT22;12629;50.860;5.714;2023-07-28T19:27:09;21.10;99.90
24458;DHT22;12629;50.860;5.714;2023-07-28T19:29:38;21.00;99.90
24458;DHT22;12629;50.860;5.714;2023-07-28T19:32:05;21.00;99.90
24458;DHT22;12629;50.860;5.714;2023-07-28T19:34:33;21.00;99.90
24458;DHT22;12629;50.860;5.714;2023-07-28T19:37:00;20.90;99.90
24458;DHT22;12629;50.860;5.714;2023-07-28T19:39:28;20.90;99.90
24458;DHT22;12629;50.860;5.714;2023-07-28T19:41:55;20.80;99.90
24458;DHT22;12629;50.860;5.714;2023-07-28T19:44:23;20.90;99.90
24458;DHT22;12629;50.860;5.714;2023-07-28T19:46:52;20.90;99.90
24458;DHT22;12629;50.860;5.714;2023-07-28T19:49:19;20.90;99.90
24458;DHT22;12629;50.860;5.714;2023-07-28T19:51:46;20.60;99.90
24458;DHT22;12629;50.860;5.714;2023-07-28T19:54:13;20.30;99.90
24458;DHT22;12629;50.860;5.714;2023-07-28T19:56:41;20.10;99.90
24458;DHT22;12629;50.860;5.714;2023-07-28T19:59:08;20.00;99.90
24458;DHT22;12629;50.860;5.714;2023-07-28T20:01:38;19.70;99.90
24458;DHT22;12629;50.860;5.714;2023-07-28T20:04:07;19.70;99.90
24458;DHT22;12629;50.860;5.714;2023-07-28T20:06:34;19.60;99.90
24458;DHT22;12629;50.860;5.714;2023-07-28T20:09:02;19.60;99.90
24458;DHT22;12629;50.860;5.714;2023-07-28T20:11:29;19.50;99.90
24458;DHT22;12629;50.860;5.714;2023-07-28T20:13:57;19.40;99.90
24458;DHT22;12629;50.860;5.714;2023-07-28T20:16:24;19.40;99.90
24458;DHT22;12629;50.860;5.714;2023-07-28T20:18:53;19.40;99.90
24458;DHT22;12629;50.860;5.714;2023-07-28T20:21:21;19.30;99.90
24458;DHT22;12629;50.860;5.714;2023-07-28T20:23:49;19.20;99.90
24458;DHT22;12629;50.860;5.714;2023-07-28T20:26:16;19.20;99.90
24458;DHT22;12629;50.860;5.714;2023-07-28T20:28:43;19.10;99.90
24458;DHT22;12629;50.860;5.714;2023-07-28T20:31:11;19.10;99.90
24458;DHT22;12629;50.860;5.714;2023-07-28T20:33:38;19.10;99.90
24458;DHT22;12629;50.860;5.714;2023-07-28T20:36:05;19.20;99.90
24458;DHT22;12629;50.860;5.714;2023-07-28T20:38:34;19.20;99.90
24458;DHT22;12629;50.860;5.714;2023-07-28T20:41:01;19.10;99.90
24458;DHT22;12629;50.860;5.714;2023-07-28T20:43:29;19.10;99.90
24458;DHT22;12629;50.860;5.714;2023-07-28T20:45:57;19.10;99.90
24458;DHT22;12629;50.860;5.714;2023-07-28T20:48:25;19.10;99.90
24458;DHT22;12629;50.860;5.714;2023-07-28T20:50:52;19.10;99.90
24458;DHT22;12629;50.860;5.714;2023-07-28T20:53:19;19.00;99.90
24458;DHT22;12629;50.860;5.714;2023-07-28T20:55:50;19.00;99.90
24458;DHT22;12629;50.860;5.714;2023-07-28T20:58:17;18.90;99.90
24458;DHT22;12629;50.860;5.714;2023-07-28T21:00:45;18.90;99.90
24458;DHT22;12629;50.860;5.714;2023-07-28T21:03:12;19.00;99.90
24458;DHT22;12629;50.860;5.714;2023-07-28T21:05:39;19.00;99.90
24458;DHT22;12629;50.860;5.714;2023-07-28T21:08:07;19.00;99.90
24458;DHT22;12629;50.860;5.714;2023-07-28T21:10:34;19.00;99.90
24458;DHT22;12629;50.860;5.714;2023-07-28T21:13:03;18.90;99.90
24458;DHT22;12629;50.860;5.714;2023-07-28T21:15:32;18.90;99.90
24458;DHT22;12629;50.860;5.714;2023-07-28T21:18:00;18.90;99.90
24458;DHT22;12629;50.860;5.714;2023-07-28T21:20:27;18.90;99.90
24458;DHT22;12629;50.860;5.714;2023-07-28T21:22:55;18.90;99.90
24458;DHT22;12629;50.860;5.714;2023-07-28T21:25:22;18.90;99.90
24458;DHT22;12629;50.860;5.714;2023-07-28T21:27:49;18.90;99.90
24458;DHT22;12629;50.860;5.714;2023-07-28T21:30:18;18.90;99.90
24458;DHT22;12629;50.860;5.714;2023-07-28T21:32:45;18.80;99.90
24458;DHT22;12629;50.860;5.714;2023-07-28T21:35:12;18.80;99.90
24458;DHT22;12629;50.860;5.714;2023-07-28T21:37:40;18.80;99.90
24458;DHT22;12629;50.860;5.714;2023-07-28T21:40:08;18.80;99.90
24458;DHT22;12629;50.860;5.714;2023-07-28T21:42:35;18.80;99.90
24458;DHT22;12629;50.860;5.714;2023-07-28T21:45:03;18.90;99.90
24458;DHT22;12629;50.860;5.714;2023-07-28T21:47:32;18.90;99.90
24458;DHT22;12629;50.860;5.714;2023-07-28T21:49:59;18.80;99.90
24458;DHT22;12629;50.860;5.714;2023-07-28T21:52:26;18.90;99.90
24458;DHT22;12629;50.860;5.714;2023-07-28T21:54:54;18.90;99.90
24458;DHT22;12629;50.860;5.714;2023-07-28T21:57:21;18.90;99.90
24458;DHT22;12629;50.860;5.714;2023-07-28T21:59:48;18.80;99.90
24458;DHT22;12629;50.860;5.714;2023-07-28T22:02:16;18.80;99.90
24458;DHT22;12629;50.860;5.714;2023-07-28T22:04:45;18.80;99.90
24458;DHT22;12629;50.860;5.714;2023-07-28T22:07:12;18.60;99.90
24458;DHT22;12629;50.860;5.714;2023-07-28T22:09:40;18.60;99.90
24458;DHT22;12629;50.860;5.714;2023-07-28T22:12:08;18.60;99.90
24458;DHT22;12629;50.860;5.714;2023-07-28T22:14:35;18.60;99.90
24458;DHT22;12629;50.860;5.714;2023-07-28T22:17:02;18.60;99.90
24458;DHT22;12629;50.860;5.714;2023-07-28T22:19:29;18.60;99.90
24458;DHT22;12629;50.860;5.714;2023-07-28T22:21:58;18.50;99.90
24458;DHT22;12629;50.860;5.714;2023-07-28T22:24:25;18.40;99.90
24458;DHT22;12629;50.860;5.714;2023-07-28T22:26:52;18.40;99.90
24458;DHT22;12629;50.860;5.714;2023-07-28T22:29:20;18.30;99.90
24458;DHT22;12629;50.860;5.714;2023-07-28T22:31:47;18.30;99.90
24458;DHT22;12629;50.860;5.714;2023-07-28T22:34:15;18.30;99.90
24458;DHT22;12629;50.860;5.714;2023-07-28T22:36:42;18.50;99.90
24458;DHT22;12629;50.860;5.714;2023-07-28T22:39:11;18.50;99.90
24458;DHT22;12629;50.860;5.714;2023-07-28T22:41:39;18.50;99.90
24458;DHT22;12629;50.860;5.714;2023-07-28T22:44:06;18.50;99.90
24458;DHT22;12629;50.860;5.714;2023-07-28T22:46:33;18.50;99.90
24458;DHT22;12629;50.860;5.714;2023-07-28T22:49:00;18.40;99.90
24458;DHT22;12629;50.860;5.714;2023-07-28T22:51:28;18.40;99.90
24458;DHT22;12629;50.860;5.714;2023-07-28T22:53:55;18.30;99.90
24458;DHT22;12629;50.860;5.714;2023-07-28T22:56:23;18.40;99.90
24458;DHT22;12629;50.860;5.714;2023-07-28T22:58:51;18.40;99.90
24458;DHT22;12629;50.860;5.714;2023-07-28T23:01:18;18.60;99.90
24458;DHT22;12629;50.860;5.714;2023-07-28T23:03:45;18.60;99.90
24458;DHT22;12629;50.860;5.714;2023-07-28T23:06:13;18.60;99.90
24458;DHT22;12629;50.860;5.714;2023-07-28T23:08:40;18.70;99.90
24458;DHT22;12629;50.860;5.714;2023-07-28T23:11:07;18.70;99.90
24458;DHT22;12629;50.860;5.714;2023-07-28T23:13:36;18.70;99.90
24458;DHT22;12629;50.860;5.714;2023-07-28T23:16:03;18.70;99.90
24458;DHT22;12629;50.860;5.714;2023-07-28T23:18:31;18.70;99.90
24458;DHT22;12629;50.860;5.714;2023-07-28T23:20:58;18.60;99.90
24458;DHT22;12629;50.860;5.714;2023-07-28T23:23:25;18.50;99.90
24458;DHT22;12629;50.860;5.714;2023-07-28T23:25:52;18.60;99.90
24458;DHT22;12629;50.860;5.714;2023-07-28T23:28:19;18.60;99.90
24458;DHT22;12629;50.860;5.714;2023-07-28T23:30:48;18.70;99.90
24458;DHT22;12629;50.860;5.714;2023-07-28T23:33:16;18.70;99.90
24458;DHT22;12629;50.860;5.714;2023-07-28T23:35:43;18.70;99.90
24458;DHT22;12629;50.860;5.714;2023-07-28T23:38:10;18.70;99.90
24458;DHT22;12629;50.860;5.714;2023-07-28T23:40:37;18.70;99.90
24458;DHT22;12629;50.860;5.714;2023-07-28T23:43:05;18.60;99.90
24458;DHT22;12629;50.860;5.714;2023-07-28T23:45:32;18.60;99.90
24458;DHT22;12629;50.860;5.714;2023-07-28T23:48:01;18.60;99.90
24458;DHT22;12629;50.860;5.714;2023-07-28T23:50:28;18.60;99.90
24458;DHT22;12629;50.860;5.714;2023-07-28T23:52:55;18.50;99.90
24458;DHT22;12629;50.860;5.714;2023-07-28T23:55:22;18.60;99.90
24458;DHT22;12629;50.860;5.714;2023-07-28T23:57:50;18.60;99.90
